Barking Sands Airport Kekaha US
ICAO: PHBK
IATA:
Category: Medium
Scheduled Services:

Elevation: 23 ft
TransAlt. 18000 ft.

Airport Communications:
HONOLULU CNTR:126.5
RANGE OUTRIDER:32.285
TWR:126.2
UNICOM:122.8

PHBK Zoom In..

Runways:

(A) RW 16 length 6002 ft width 146 ft
---- / hdg 160

(B) RW 34 length 6002 ft width 146 ft
---- / hdg 340

Location; PHBK
Day. 21 / Time. 05.56 Zulu
* Altimeter: 29.96
* Temperature: 27° c. 80.6°f.
* Wind from: 170° Speed 03 kn.
Dewpoint: 22° c.
Visibility: 10 Statute Miles.
Clouds: Broken 4600 ft.

PHBK 210556Z AUTO 17003KT 10SM BKN046 27/22 A2996 RMK AO2 SLP147 T02720217 10300 20272 53010


Wind From 170°
Speed 03 kn.

 
 
jpsmedia.com for Web Design worldairports.se 2018   terms of use